createdAt,value
2022-10-29T00:07:19.381Z,0
2022-10-29T00:09:22.780Z,0
2022-10-29T00:14:42.271Z,0
2022-10-29T00:25:20.741Z,0
2022-10-29T00:30:38.617Z,0
2022-10-29T00:35:57.825Z,0
2022-10-29T00:41:17.550Z,0
2022-10-29T00:51:57.041Z,0
2022-10-29T00:57:15.290Z,0
2022-10-29T01:02:42.740Z,0
2022-10-29T01:07:54.578Z,0
2022-10-29T01:18:42.367Z,0
2022-10-29T01:23:51.658Z,0
2022-10-29T01:29:11.151Z,0
2022-10-29T01:34:30.812Z,0
2022-10-29T01:39:50.073Z,0
2022-10-29T01:45:08.715Z,0
2022-10-29T01:50:27.411Z,0
2022-10-29T01:55:46.295Z,0
2022-10-29T02:01:05.820Z,0
2022-10-29T02:06:26.139Z,0
2022-10-29T02:17:03.500Z,0
2022-10-29T02:22:31.554Z,0
2022-10-29T02:27:42.480Z,0
2022-10-29T02:34:16.635Z,0
2022-10-29T02:38:21.263Z,0
2022-10-29T02:43:40.865Z,0
2022-10-29T02:49:00.131Z,0
2022-10-29T02:59:38.226Z,0
2022-10-29T03:04:57.454Z,0
2022-10-29T03:10:15.540Z,0
2022-10-29T03:15:35.110Z,0
2022-10-29T03:20:54.294Z,0
2022-10-29T03:26:14.075Z,0
2022-10-29T03:31:32.850Z,0
2022-10-29T03:42:11.618Z,0
2022-10-29T03:47:31.170Z,0
2022-10-29T03:52:49.823Z,0
2022-10-29T03:58:08.936Z,0
2022-10-29T04:03:27.746Z,0
2022-10-29T04:08:46.943Z,0
2022-10-29T04:14:06.187Z,0
2022-10-29T04:30:04.947Z,0
2022-10-29T04:40:42.922Z,0
2022-10-29T04:46:02.359Z,0
2022-10-29T04:51:21.647Z,0
2022-10-29T04:56:42.022Z,0
2022-10-29T05:07:19.192Z,0
2022-10-29T05:12:38.673Z,0
2022-10-29T05:19:12.800Z,0
2022-10-29T05:23:29.352Z,0
2022-10-29T05:28:36.843Z,0
2022-10-29T05:35:35.397Z,0
2022-10-29T05:39:16.314Z,0
2022-10-29T05:44:35.570Z,0
2022-10-29T05:49:54.861Z,0
2022-10-29T05:55:13.723Z,0.0042
2022-10-29T06:05:49.920Z,0.022
2022-10-29T06:11:09.065Z,0.0309
2022-10-29T06:16:28.381Z,0.0408
2022-10-29T06:21:47.503Z,0.0387
2022-10-29T06:27:07.233Z,0.0427
2022-10-29T06:32:25.962Z,0.0455
2022-10-29T06:37:45.780Z,0.0543
2022-10-29T06:48:24.299Z,0.0826
2022-10-29T06:53:43.907Z,0.0827
2022-10-29T07:04:21.656Z,0.1015
2022-10-29T07:09:40.365Z,0.1002
2022-10-29T07:15:00.595Z,0.0893
2022-10-29T07:20:19.844Z,0.1014
2022-10-29T07:25:38.437Z,0.1268
2022-10-29T07:30:58.685Z,0.1458
2022-10-29T07:36:18.099Z,0.1526
2022-10-29T07:41:37.537Z,0.1511
2022-10-29T07:46:56.616Z,0.1334
2022-10-29T07:52:15.860Z,0.128
2022-10-29T07:58:49.956Z,0.1298
2022-10-29T08:02:54.913Z,0.1385
2022-10-29T08:08:14.619Z,0.1606
2022-10-29T08:13:33.612Z,0.1987
2022-10-29T08:24:10.641Z,0.3231
2022-10-29T08:29:30.212Z,0.5043
2022-10-29T08:34:48.908Z,0.5325
2022-10-29T08:40:07.760Z,0.593
2022-10-29T08:45:27.073Z,0.5076
2022-10-29T08:52:01.212Z,0.4604
2022-10-29T08:56:07.141Z,0.754
2022-10-29T09:01:26.081Z,0.792
2022-10-29T09:06:45.634Z,0.499
2022-10-29T09:12:05.098Z,0.372
2022-10-29T09:22:41.781Z,0.42
2022-10-29T09:28:00.913Z,0.491
2022-10-29T09:33:20.169Z,0.3795
2022-10-29T09:38:39.108Z,0.4672
2022-10-29T09:43:59.388Z,0.4421
2022-10-29T09:49:19.080Z,0.7095
2022-10-29T09:54:38.264Z,0.7122
2022-10-29T10:05:15.981Z,1.3851
2022-10-29T10:10:35.058Z,0.773
2022-10-29T10:15:53.825Z,0.7335
2022-10-29T10:22:28.014Z,0.7311
2022-10-29T10:26:33.838Z,0.7766
2022-10-29T10:31:53.255Z,0.7051
2022-10-29T10:37:11.474Z,0.8617
2022-10-29T10:42:30.609Z,0.9664
2022-10-29T10:47:49.315Z,1.2281
2022-10-29T11:07:01.472Z,0.4622
2022-10-29T11:09:06.179Z,0.4672
2022-10-29T11:14:25.164Z,0.3616
2022-10-29T11:19:44.775Z,0.3287
2022-10-29T11:25:04.098Z,0.8357
2022-10-29T11:30:23.623Z,0.4257
2022-10-29T11:35:43.007Z,0.5202
2022-10-29T11:46:21.011Z,0.5357
2022-10-29T11:51:40.571Z,0.6334
2022-10-29T11:57:00.043Z,0.4575
2022-10-29T12:02:18.835Z,0.4168
2022-10-29T12:07:37.798Z,0.4829
2022-10-29T12:12:57.139Z,0.6471
2022-10-29T12:18:16.158Z,0.5059
2022-10-29T12:28:54.604Z,0.8384
2022-10-29T12:34:13.527Z,0.816
2022-10-29T12:39:32.680Z,0.6339
2022-10-29T12:44:52.149Z,0.5391
2022-10-29T12:50:11.110Z,0.5882
2022-10-29T12:55:29.776Z,0.5737
2022-10-29T13:00:48.946Z,0.5853
2022-10-29T13:06:08.339Z,0.2781
2022-10-29T13:11:27.210Z,0.2719
2022-10-29T13:16:47.170Z,0.2179
2022-10-29T13:27:24.901Z,0.2371
2022-10-29T13:32:43.581Z,0.2753
2022-10-29T13:38:02.739Z,0.2647
2022-10-29T13:43:21.829Z,0.2387
2022-10-29T13:48:41.027Z,0.2387
2022-10-29T13:54:00.513Z,0.2501
2022-10-29T13:59:19.114Z,0.222
2022-10-29T14:09:57.671Z,0.23
2022-10-29T14:15:16.481Z,0.2071
2022-10-29T14:25:54.671Z,0.1938
2022-10-29T14:31:14.722Z,0.1841
2022-10-29T14:36:33.963Z,0.1774
2022-10-29T14:41:53.616Z,0.1701
2022-10-29T14:47:12.740Z,0.1582
2022-10-29T14:52:31.687Z,0.1394
2022-10-29T14:52:56.849Z,0.1403
2022-10-29T14:58:15.607Z,0.1234
2022-10-29T15:03:34.479Z,0.1105
2022-10-29T15:08:53.123Z,0.0998
2022-10-29T15:19:31.944Z,0.0883
2022-10-29T15:24:51.464Z,0.071
2022-10-29T15:35:29.932Z,0.0575
2022-10-29T15:40:50.371Z,0.0499
2022-10-29T15:46:09.747Z,0.0416
2022-10-29T15:51:29.200Z,0.033
2022-10-29T15:58:03.340Z,0.0277
2022-10-29T16:02:07.652Z,0.0271
2022-10-29T16:07:26.696Z,0.0143
2022-10-29T16:12:45.835Z,0.0048
2022-10-29T16:18:04.002Z,0.0006
2022-10-29T16:23:23.411Z,0
2022-10-29T16:34:02.393Z,0
2022-10-29T16:39:22.028Z,0
2022-10-29T16:44:41.198Z,0
2022-10-29T16:50:00.494Z,0
2022-10-29T16:55:20.133Z,0
2022-10-29T17:00:38.502Z,0
2022-10-29T17:05:58.203Z,0
2022-10-29T17:16:36.871Z,0
2022-10-29T17:21:55.774Z,0
2022-10-29T17:32:34.291Z,0
2022-10-29T17:37:53.202Z,0
2022-10-29T17:43:12.196Z,0
2022-10-29T17:48:31.451Z,0
2022-10-29T17:59:09.769Z,0
2022-10-29T18:04:28.824Z,0
2022-10-29T18:09:47.193Z,0
2022-10-29T18:15:06.366Z,0
2022-10-29T18:20:25.096Z,0
2022-10-29T18:25:44.552Z,0
2022-10-29T18:31:03.490Z,0
2022-10-29T18:36:22.324Z,0
2022-10-29T18:41:42.494Z,0
2022-10-29T18:47:01.513Z,0
2022-10-29T18:57:38.926Z,0
2022-10-29T19:02:58.696Z,0
2022-10-29T19:08:18.788Z,0
2022-10-29T19:13:37.640Z,0
2022-10-29T19:18:57.251Z,0
2022-10-29T19:24:16.776Z,0
2022-10-29T19:29:35.529Z,0
2022-10-29T19:40:14.110Z,0
2022-10-29T19:45:33.604Z,0
2022-10-29T19:50:52.538Z,0
2022-10-29T19:57:26.713Z,0
2022-10-29T20:01:31.928Z,0
2022-10-29T20:06:51.570Z,0
2022-10-29T20:12:10.415Z,0
2022-10-29T20:17:30.064Z,0
2022-10-29T20:22:49.010Z,0
2022-10-29T20:28:08.306Z,0
2022-10-29T20:36:41.505Z,0
2022-10-29T20:38:47.046Z,0
2022-10-29T20:44:06.802Z,0
2022-10-29T20:49:25.847Z,0
2022-10-29T20:54:44.740Z,0
2022-10-29T21:05:23.373Z,0
2022-10-29T21:10:42.673Z,0
2022-10-29T21:21:21.533Z,0
2022-10-29T21:26:40.131Z,0
2022-10-29T21:31:58.935Z,0
2022-10-29T21:38:33.073Z,0
2022-10-29T21:42:49.624Z,0
2022-10-29T21:47:58.099Z,0
2022-10-29T21:53:17.074Z,0
2022-10-29T21:58:35.337Z,0
2022-10-29T22:03:54.648Z,0
2022-10-29T22:15:48.339Z,0
2022-10-29T22:20:04.911Z,0
2022-10-29T22:25:11.752Z,0
2022-10-29T22:30:30.978Z,0
2022-10-29T22:35:50.336Z,0
2022-10-29T22:41:09.536Z,0
2022-10-29T22:46:28.944Z,0
2022-10-29T22:51:48.184Z,0
2022-10-29T22:57:07.164Z,0
2022-10-29T23:02:26.573Z,0
2022-10-29T23:07:45.831Z,0
2022-10-29T23:13:04.609Z,0
2022-10-29T23:23:43.449Z,0
2022-10-29T23:29:02.607Z,0
2022-10-29T23:39:41.014Z,0
2022-10-29T23:45:03.497Z,0
2022-10-29T23:50:18.982Z,0
2022-10-29T23:55:38.024Z,0
